sensor_id;sensor_type;location;lat;lon;timestamp;P1;durP1;ratioP1;P2;durP2;ratioP2
10473;SDS011;5284;50.446;7.904;2023-08-31T00:03:25;7.97;;;3.50;;
10473;SDS011;5284;50.446;7.904;2023-08-31T00:08:29;9.18;;;4.57;;
10473;SDS011;5284;50.446;7.904;2023-08-31T00:13:33;11.20;;;4.28;;
10473;SDS011;5284;50.446;7.904;2023-08-31T00:18:37;9.40;;;4.38;;
10473;SDS011;5284;50.446;7.904;2023-08-31T00:23:40;7.20;;;4.30;;
10473;SDS011;5284;50.446;7.904;2023-08-31T00:28:44;9.10;;;3.95;;
10473;SDS011;5284;50.446;7.904;2023-08-31T00:33:47;10.35;;;4.82;;
10473;SDS011;5284;50.446;7.904;2023-08-31T00:38:52;15.45;;;4.65;;
10473;SDS011;5284;50.446;7.904;2023-08-31T00:43:56;10.93;;;4.70;;
10473;SDS011;5284;50.446;7.904;2023-08-31T00:49:00;13.38;;;5.22;;
10473;SDS011;5284;50.446;7.904;2023-08-31T00:54:05;8.20;;;4.50;;
10473;SDS011;5284;50.446;7.904;2023-08-31T00:59:09;9.32;;;4.75;;
10473;SDS011;5284;50.446;7.904;2023-08-31T01:04:16;7.43;;;4.35;;
10473;SDS011;5284;50.446;7.904;2023-08-31T01:09:27;12.30;;;5.03;;
10473;SDS011;5284;50.446;7.904;2023-08-31T01:14:41;14.02;;;4.78;;
10473;SDS011;5284;50.446;7.904;2023-08-31T01:19:47;12.63;;;5.20;;
10473;SDS011;5284;50.446;7.904;2023-08-31T01:24:54;10.75;;;5.05;;
10473;SDS011;5284;50.446;7.904;2023-08-31T01:29:57;18.30;;;5.85;;
10473;SDS011;5284;50.446;7.904;2023-08-31T01:35:01;10.05;;;5.13;;
10473;SDS011;5284;50.446;7.904;2023-08-31T01:40:10;16.77;;;5.10;;
10473;SDS011;5284;50.446;7.904;2023-08-31T01:45:20;10.35;;;5.40;;
10473;SDS011;5284;50.446;7.904;2023-08-31T01:50:25;11.38;;;5.03;;
10473;SDS011;5284;50.446;7.904;2023-08-31T01:55:30;16.45;;;6.75;;
10473;SDS011;5284;50.446;7.904;2023-08-31T02:00:33;8.18;;;4.88;;
10473;SDS011;5284;50.446;7.904;2023-08-31T02:05:40;11.52;;;5.75;;
10473;SDS011;5284;50.446;7.904;2023-08-31T02:10:44;17.83;;;5.40;;
10473;SDS011;5284;50.446;7.904;2023-08-31T02:15:56;14.18;;;5.43;;
10473;SDS011;5284;50.446;7.904;2023-08-31T02:21:01;11.75;;;6.50;;
10473;SDS011;5284;50.446;7.904;2023-08-31T02:26:07;13.43;;;6.00;;
10473;SDS011;5284;50.446;7.904;2023-08-31T02:31:11;14.38;;;7.13;;
10473;SDS011;5284;50.446;7.904;2023-08-31T02:41:23;25.00;;;5.68;;
10473;SDS011;5284;50.446;7.904;2023-08-31T02:46:26;11.90;;;6.68;;
10473;SDS011;5284;50.446;7.904;2023-08-31T02:51:29;15.85;;;6.20;;
10473;SDS011;5284;50.446;7.904;2023-08-31T02:56:36;15.57;;;6.82;;
10473;SDS011;5284;50.446;7.904;2023-08-31T03:01:39;21.23;;;7.22;;
10473;SDS011;5284;50.446;7.904;2023-08-31T03:06:44;17.73;;;6.13;;
10473;SDS011;5284;50.446;7.904;2023-08-31T03:11:49;18.25;;;7.28;;
10473;SDS011;5284;50.446;7.904;2023-08-31T03:16:51;11.77;;;6.93;;
10473;SDS011;5284;50.446;7.904;2023-08-31T03:21:54;15.05;;;6.53;;
10473;SDS011;5284;50.446;7.904;2023-08-31T03:27:00;15.68;;;5.88;;
10473;SDS011;5284;50.446;7.904;2023-08-31T03:32:05;11.65;;;5.75;;
10473;SDS011;5284;50.446;7.904;2023-08-31T03:37:08;11.77;;;6.07;;
10473;SDS011;5284;50.446;7.904;2023-08-31T03:42:14;9.40;;;5.70;;
10473;SDS011;5284;50.446;7.904;2023-08-31T03:47:18;11.57;;;5.50;;
10473;SDS011;5284;50.446;7.904;2023-08-31T03:52:22;8.70;;;5.60;;
10473;SDS011;5284;50.446;7.904;2023-08-31T03:57:26;10.70;;;6.38;;
10473;SDS011;5284;50.446;7.904;2023-08-31T04:02:35;19.15;;;5.68;;
10473;SDS011;5284;50.446;7.904;2023-08-31T04:07:40;11.57;;;5.45;;
10473;SDS011;5284;50.446;7.904;2023-08-31T04:12:46;9.80;;;5.20;;
10473;SDS011;5284;50.446;7.904;2023-08-31T04:17:50;8.18;;;4.30;;
10473;SDS011;5284;50.446;7.904;2023-08-31T04:22:53;10.52;;;5.03;;
10473;SDS011;5284;50.446;7.904;2023-08-31T04:27:57;9.77;;;4.57;;
10473;SDS011;5284;50.446;7.904;2023-08-31T04:33:00;13.00;;;4.47;;
10473;SDS011;5284;50.446;7.904;2023-08-31T04:38:06;12.80;;;3.95;;
10473;SDS011;5284;50.446;7.904;2023-08-31T04:43:12;12.50;;;5.22;;
10473;SDS011;5284;50.446;7.904;2023-08-31T04:48:16;13.48;;;4.63;;
10473;SDS011;5284;50.446;7.904;2023-08-31T04:53:19;15.80;;;4.22;;
10473;SDS011;5284;50.446;7.904;2023-08-31T04:58:23;7.03;;;3.53;;
10473;SDS011;5284;50.446;7.904;2023-08-31T05:03:26;11.98;;;3.70;;
10473;SDS011;5284;50.446;7.904;2023-08-31T05:08:29;8.13;;;3.67;;
10473;SDS011;5284;50.446;7.904;2023-08-31T05:13:35;7.85;;;4.03;;
10473;SDS011;5284;50.446;7.904;2023-08-31T05:18:45;13.27;;;3.80;;
10473;SDS011;5284;50.446;7.904;2023-08-31T05:23:48;23.98;;;4.22;;
10473;SDS011;5284;50.446;7.904;2023-08-31T05:28:53;7.32;;;3.90;;
10473;SDS011;5284;50.446;7.904;2023-08-31T05:33:57;6.70;;;3.60;;
10473;SDS011;5284;50.446;7.904;2023-08-31T05:39:00;7.82;;;3.63;;
10473;SDS011;5284;50.446;7.904;2023-08-31T05:44:08;11.63;;;3.72;;
10473;SDS011;5284;50.446;7.904;2023-08-31T05:49:11;10.38;;;4.43;;
10473;SDS011;5284;50.446;7.904;2023-08-31T05:54:16;17.10;;;3.80;;
10473;SDS011;5284;50.446;7.904;2023-08-31T05:59:20;8.77;;;4.50;;
10473;SDS011;5284;50.446;7.904;2023-08-31T06:04:23;4.20;;;2.85;;
10473;SDS011;5284;50.446;7.904;2023-08-31T06:09:27;12.98;;;3.58;;
10473;SDS011;5284;50.446;7.904;2023-08-31T06:14:31;6.45;;;3.10;;
10473;SDS011;5284;50.446;7.904;2023-08-31T06:19:36;5.53;;;3.23;;
10473;SDS011;5284;50.446;7.904;2023-08-31T06:24:39;5.88;;;3.53;;
10473;SDS011;5284;50.446;7.904;2023-08-31T06:29:45;5.45;;;2.70;;
10473;SDS011;5284;50.446;7.904;2023-08-31T06:34:48;6.65;;;2.83;;
10473;SDS011;5284;50.446;7.904;2023-08-31T06:39:52;12.10;;;2.67;;
10473;SDS011;5284;50.446;7.904;2023-08-31T06:44:57;11.38;;;3.70;;
10473;SDS011;5284;50.446;7.904;2023-08-31T06:50:00;7.72;;;2.67;;
10473;SDS011;5284;50.446;7.904;2023-08-31T06:55:05;6.15;;;2.67;;
10473;SDS011;5284;50.446;7.904;2023-08-31T07:00:10;9.07;;;3.17;;
10473;SDS011;5284;50.446;7.904;2023-08-31T07:05:16;7.75;;;2.55;;
10473;SDS011;5284;50.446;7.904;2023-08-31T07:10:22;11.63;;;2.55;;
10473;SDS011;5284;50.446;7.904;2023-08-31T07:15:27;5.45;;;2.45;;
10473;SDS011;5284;50.446;7.904;2023-08-31T07:25:35;3.63;;;2.13;;
10473;SDS011;5284;50.446;7.904;2023-08-31T07:30:40;8.75;;;2.25;;
10473;SDS011;5284;50.446;7.904;2023-08-31T07:35:43;11.02;;;2.58;;
10473;SDS011;5284;50.446;7.904;2023-08-31T07:40:46;5.93;;;2.08;;
10473;SDS011;5284;50.446;7.904;2023-08-31T07:45:52;7.57;;;2.58;;
10473;SDS011;5284;50.446;7.904;2023-08-31T07:50:56;9.93;;;2.38;;
10473;SDS011;5284;50.446;7.904;2023-08-31T08:02:07;9.10;;;1.98;;
10473;SDS011;5284;50.446;7.904;2023-08-31T08:07:11;14.57;;;2.28;;
10473;SDS011;5284;50.446;7.904;2023-08-31T08:12:15;3.92;;;1.70;;
10473;SDS011;5284;50.446;7.904;2023-08-31T08:17:19;8.73;;;2.22;;
10473;SDS011;5284;50.446;7.904;2023-08-31T08:22:24;7.20;;;2.17;;
10473;SDS011;5284;50.446;7.904;2023-08-31T08:27:27;6.20;;;1.70;;
10473;SDS011;5284;50.446;7.904;2023-08-31T08:32:34;4.15;;;2.08;;
10473;SDS011;5284;50.446;7.904;2023-08-31T08:37:37;8.77;;;2.15;;
10473;SDS011;5284;50.446;7.904;2023-08-31T08:42:40;7.72;;;2.13;;
10473;SDS011;5284;50.446;7.904;2023-08-31T08:47:48;5.88;;;2.15;;
10473;SDS011;5284;50.446;7.904;2023-08-31T08:52:52;11.32;;;2.25;;
10473;SDS011;5284;50.446;7.904;2023-08-31T08:57:57;4.47;;;1.50;;
10473;SDS011;5284;50.446;7.904;2023-08-31T09:03:03;6.43;;;1.83;;
10473;SDS011;5284;50.446;7.904;2023-08-31T09:08:07;5.40;;;1.92;;
10473;SDS011;5284;50.446;7.904;2023-08-31T09:13:14;10.85;;;1.77;;
10473;SDS011;5284;50.446;7.904;2023-08-31T09:18:22;6.43;;;2.03;;
10473;SDS011;5284;50.446;7.904;2023-08-31T09:23:28;13.00;;;2.05;;
10473;SDS011;5284;50.446;7.904;2023-08-31T09:28:31;6.97;;;2.15;;
10473;SDS011;5284;50.446;7.904;2023-08-31T09:33:37;6.18;;;1.50;;
10473;SDS011;5284;50.446;7.904;2023-08-31T09:38:43;3.38;;;1.55;;
10473;SDS011;5284;50.446;7.904;2023-08-31T09:43:47;12.52;;;2.80;;
10473;SDS011;5284;50.446;7.904;2023-08-31T09:48:53;12.52;;;1.98;;
10473;SDS011;5284;50.446;7.904;2023-08-31T09:53:59;9.23;;;1.75;;
10473;SDS011;5284;50.446;7.904;2023-08-31T09:59:07;8.43;;;1.70;;
10473;SDS011;5284;50.446;7.904;2023-08-31T10:04:12;5.28;;;1.70;;
10473;SDS011;5284;50.446;7.904;2023-08-31T10:09:17;11.80;;;1.83;;
10473;SDS011;5284;50.446;7.904;2023-08-31T10:14:21;6.40;;;1.30;;
10473;SDS011;5284;50.446;7.904;2023-08-31T10:19:26;2.40;;;1.30;;
10473;SDS011;5284;50.446;7.904;2023-08-31T10:30:12;5.75;;;2.20;;
10473;SDS011;5284;50.446;7.904;2023-08-31T10:35:18;9.30;;;2.43;;
10473;SDS011;5284;50.446;7.904;2023-08-31T10:40:22;14.55;;;1.67;;
10473;SDS011;5284;50.446;7.904;2023-08-31T10:45:26;7.63;;;1.95;;
10473;SDS011;5284;50.446;7.904;2023-08-31T10:50:33;7.40;;;1.75;;
10473;SDS011;5284;50.446;7.904;2023-08-31T10:55:50;4.32;;;1.23;;
10473;SDS011;5284;50.446;7.904;2023-08-31T11:00:54;5.72;;;1.85;;
10473;SDS011;5284;50.446;7.904;2023-08-31T11:06:00;9.90;;;1.02;;
10473;SDS011;5284;50.446;7.904;2023-08-31T11:11:03;11.98;;;1.95;;
10473;SDS011;5284;50.446;7.904;2023-08-31T11:16:06;4.90;;;1.67;;
10473;SDS011;5284;50.446;7.904;2023-08-31T11:21:12;6.28;;;1.30;;
10473;SDS011;5284;50.446;7.904;2023-08-31T11:26:16;8.00;;;1.52;;
10473;SDS011;5284;50.446;7.904;2023-08-31T11:31:23;11.15;;;3.33;;
10473;SDS011;5284;50.446;7.904;2023-08-31T11:36:30;7.00;;;1.80;;
10473;SDS011;5284;50.446;7.904;2023-08-31T11:41:34;4.40;;;1.27;;
10473;SDS011;5284;50.446;7.904;2023-08-31T11:46:39;13.50;;;1.88;;
10473;SDS011;5284;50.446;7.904;2023-08-31T11:51:46;6.77;;;2.07;;
10473;SDS011;5284;50.446;7.904;2023-08-31T11:56:53;5.53;;;1.60;;
10473;SDS011;5284;50.446;7.904;2023-08-31T12:01:56;7.20;;;2.03;;
10473;SDS011;5284;50.446;7.904;2023-08-31T12:07:04;6.50;;;1.80;;
10473;SDS011;5284;50.446;7.904;2023-08-31T12:12:07;7.45;;;2.70;;
10473;SDS011;5284;50.446;7.904;2023-08-31T12:17:12;6.78;;;1.88;;
10473;SDS011;5284;50.446;7.904;2023-08-31T12:22:17;6.80;;;2.10;;
10473;SDS011;5284;50.446;7.904;2023-08-31T12:27:21;4.15;;;1.40;;
10473;SDS011;5284;50.446;7.904;2023-08-31T12:32:25;7.20;;;1.25;;
10473;SDS011;5284;50.446;7.904;2023-08-31T12:37:31;6.72;;;1.55;;
10473;SDS011;5284;50.446;7.904;2023-08-31T12:42:34;5.70;;;1.65;;
10473;SDS011;5284;50.446;7.904;2023-08-31T12:47:37;5.75;;;1.83;;
10473;SDS011;5284;50.446;7.904;2023-08-31T12:52:41;10.13;;;1.70;;
10473;SDS011;5284;50.446;7.904;2023-08-31T12:57:47;5.15;;;2.08;;
10473;SDS011;5284;50.446;7.904;2023-08-31T13:02:51;5.47;;;1.98;;
10473;SDS011;5284;50.446;7.904;2023-08-31T13:07:57;4.00;;;1.30;;
10473;SDS011;5284;50.446;7.904;2023-08-31T13:13:00;4.95;;;1.65;;
10473;SDS011;5284;50.446;7.904;2023-08-31T13:18:04;6.03;;;1.60;;
10473;SDS011;5284;50.446;7.904;2023-08-31T13:23:09;4.80;;;2.05;;
10473;SDS011;5284;50.446;7.904;2023-08-31T13:28:14;6.18;;;1.92;;
10473;SDS011;5284;50.446;7.904;2023-08-31T13:33:17;6.22;;;1.67;;
10473;SDS011;5284;50.446;7.904;2023-08-31T13:38:25;4.35;;;1.58;;
10473;SDS011;5284;50.446;7.904;2023-08-31T13:43:28;2.58;;;1.27;;
10473;SDS011;5284;50.446;7.904;2023-08-31T13:48:31;5.28;;;1.50;;
10473;SDS011;5284;50.446;7.904;2023-08-31T13:53:36;3.47;;;1.35;;
10473;SDS011;5284;50.446;7.904;2023-08-31T13:58:39;5.95;;;1.77;;
10473;SDS011;5284;50.446;7.904;2023-08-31T14:03:44;4.73;;;1.70;;
10473;SDS011;5284;50.446;7.904;2023-08-31T14:08:49;8.73;;;2.40;;
10473;SDS011;5284;50.446;7.904;2023-08-31T14:13:52;4.45;;;1.63;;
10473;SDS011;5284;50.446;7.904;2023-08-31T14:19:05;5.85;;;1.42;;
10473;SDS011;5284;50.446;7.904;2023-08-31T14:24:10;4.72;;;1.55;;
10473;SDS011;5284;50.446;7.904;2023-08-31T14:29:13;2.50;;;1.00;;
10473;SDS011;5284;50.446;7.904;2023-08-31T14:34:19;13.25;;;1.60;;
10473;SDS011;5284;50.446;7.904;2023-08-31T14:39:24;5.68;;;1.45;;
10473;SDS011;5284;50.446;7.904;2023-08-31T14:44:31;4.65;;;2.08;;
10473;SDS011;5284;50.446;7.904;2023-08-31T14:49:38;3.53;;;1.88;;
10473;SDS011;5284;50.446;7.904;2023-08-31T14:54:43;5.05;;;1.90;;
10473;SDS011;5284;50.446;7.904;2023-08-31T14:59:51;7.03;;;1.50;;
10473;SDS011;5284;50.446;7.904;2023-08-31T15:04:55;7.03;;;1.50;;
10473;SDS011;5284;50.446;7.904;2023-08-31T15:09:59;6.75;;;1.70;;
10473;SDS011;5284;50.446;7.904;2023-08-31T15:15:04;10.85;;;2.03;;
10473;SDS011;5284;50.446;7.904;2023-08-31T15:20:10;8.00;;;1.90;;
10473;SDS011;5284;50.446;7.904;2023-08-31T15:25:15;4.30;;;1.67;;
10473;SDS011;5284;50.446;7.904;2023-08-31T15:30:18;4.90;;;1.40;;
10473;SDS011;5284;50.446;7.904;2023-08-31T15:35:21;4.28;;;1.25;;
10473;SDS011;5284;50.446;7.904;2023-08-31T15:40:27;6.18;;;1.35;;
10473;SDS011;5284;50.446;7.904;2023-08-31T15:45:30;6.43;;;1.65;;
10473;SDS011;5284;50.446;7.904;2023-08-31T15:50:34;7.35;;;1.70;;
10473;SDS011;5284;50.446;7.904;2023-08-31T15:55:38;5.90;;;1.55;;
10473;SDS011;5284;50.446;7.904;2023-08-31T16:00:41;9.55;;;1.70;;
10473;SDS011;5284;50.446;7.904;2023-08-31T16:05:46;6.85;;;1.88;;
10473;SDS011;5284;50.446;7.904;2023-08-31T16:10:54;4.68;;;1.70;;
10473;SDS011;5284;50.446;7.904;2023-08-31T16:15:58;3.58;;;1.42;;
10473;SDS011;5284;50.446;7.904;2023-08-31T16:21:01;5.18;;;1.45;;
10473;SDS011;5284;50.446;7.904;2023-08-31T16:26:07;5.47;;;1.63;;
10473;SDS011;5284;50.446;7.904;2023-08-31T16:31:10;10.65;;;2.35;;
10473;SDS011;5284;50.446;7.904;2023-08-31T16:36:15;4.85;;;1.55;;
10473;SDS011;5284;50.446;7.904;2023-08-31T16:41:19;12.73;;;3.05;;
10473;SDS011;5284;50.446;7.904;2023-08-31T16:46:23;7.90;;;2.03;;
10473;SDS011;5284;50.446;7.904;2023-08-31T16:51:26;9.70;;;1.90;;
10473;SDS011;5284;50.446;7.904;2023-08-31T16:56:31;7.35;;;1.83;;
10473;SDS011;5284;50.446;7.904;2023-08-31T17:01:35;13.50;;;2.60;;
10473;SDS011;5284;50.446;7.904;2023-08-31T17:06:38;9.27;;;1.98;;
10473;SDS011;5284;50.446;7.904;2023-08-31T17:11:43;15.48;;;2.15;;
10473;SDS011;5284;50.446;7.904;2023-08-31T17:16:46;3.90;;;1.58;;
10473;SDS011;5284;50.446;7.904;2023-08-31T17:21:50;9.98;;;2.17;;
10473;SDS011;5284;50.446;7.904;2023-08-31T17:26:56;8.70;;;2.20;;
10473;SDS011;5284;50.446;7.904;2023-08-31T17:31:59;8.70;;;2.05;;
10473;SDS011;5284;50.446;7.904;2023-08-31T17:37:02;7.00;;;2.33;;
10473;SDS011;5284;50.446;7.904;2023-08-31T17:42:07;12.60;;;2.28;;
10473;SDS011;5284;50.446;7.904;2023-08-31T17:47:10;9.45;;;2.08;;
10473;SDS011;5284;50.446;7.904;2023-08-31T17:52:12;9.32;;;2.30;;
10473;SDS011;5284;50.446;7.904;2023-08-31T17:57:17;5.10;;;2.22;;
10473;SDS011;5284;50.446;7.904;2023-08-31T18:02:20;9.65;;;2.58;;
10473;SDS011;5284;50.446;7.904;2023-08-31T18:07:23;10.70;;;2.65;;
10473;SDS011;5284;50.446;7.904;2023-08-31T18:12:29;10.93;;;2.05;;
10473;SDS011;5284;50.446;7.904;2023-08-31T18:17:32;9.02;;;2.72;;
10473;SDS011;5284;50.446;7.904;2023-08-31T18:22:35;13.40;;;2.53;;
10473;SDS011;5284;50.446;7.904;2023-08-31T18:27:39;14.13;;;2.35;;
10473;SDS011;5284;50.446;7.904;2023-08-31T18:32:44;20.47;;;3.17;;
10473;SDS011;5284;50.446;7.904;2023-08-31T18:37:48;7.68;;;2.15;;
10473;SDS011;5284;50.446;7.904;2023-08-31T18:42:52;12.70;;;2.75;;
10473;SDS011;5284;50.446;7.904;2023-08-31T18:47:55;8.10;;;2.35;;
10473;SDS011;5284;50.446;7.904;2023-08-31T18:52:58;14.30;;;2.28;;
10473;SDS011;5284;50.446;7.904;2023-08-31T18:58:03;8.02;;;2.47;;
10473;SDS011;5284;50.446;7.904;2023-08-31T19:03:06;6.53;;;3.42;;
10473;SDS011;5284;50.446;7.904;2023-08-31T19:08:09;9.82;;;2.38;;
10473;SDS011;5284;50.446;7.904;2023-08-31T19:13:14;8.18;;;1.88;;
10473;SDS011;5284;50.446;7.904;2023-08-31T19:18:17;12.48;;;2.20;;
10473;SDS011;5284;50.446;7.904;2023-08-31T19:23:20;9.57;;;2.70;;
10473;SDS011;5284;50.446;7.904;2023-08-31T19:28:24;10.63;;;3.08;;
10473;SDS011;5284;50.446;7.904;2023-08-31T19:33:27;11.45;;;2.28;;
10473;SDS011;5284;50.446;7.904;2023-08-31T19:38:30;8.57;;;2.80;;
10473;SDS011;5284;50.446;7.904;2023-08-31T19:43:34;8.20;;;2.67;;
10473;SDS011;5284;50.446;7.904;2023-08-31T19:48:39;10.23;;;2.65;;
10473;SDS011;5284;50.446;7.904;2023-08-31T19:53:45;5.78;;;2.67;;
10473;SDS011;5284;50.446;7.904;2023-08-31T19:58:50;17.38;;;3.85;;
10473;SDS011;5284;50.446;7.904;2023-08-31T20:04:00;9.25;;;2.63;;
10473;SDS011;5284;50.446;7.904;2023-08-31T20:09:04;11.18;;;2.75;;
10473;SDS011;5284;50.446;7.904;2023-08-31T20:14:10;12.63;;;2.65;;
10473;SDS011;5284;50.446;7.904;2023-08-31T20:19:13;8.48;;;2.80;;
10473;SDS011;5284;50.446;7.904;2023-08-31T20:24:18;8.65;;;2.58;;
10473;SDS011;5284;50.446;7.904;2023-08-31T20:29:22;12.85;;;2.70;;
10473;SDS011;5284;50.446;7.904;2023-08-31T20:34:28;17.63;;;2.67;;
10473;SDS011;5284;50.446;7.904;2023-08-31T20:39:32;8.82;;;2.78;;
10473;SDS011;5284;50.446;7.904;2023-08-31T20:44:41;9.73;;;2.15;;
10473;SDS011;5284;50.446;7.904;2023-08-31T20:49:44;13.40;;;2.67;;
10473;SDS011;5284;50.446;7.904;2023-08-31T20:54:49;18.08;;;3.55;;
10473;SDS011;5284;50.446;7.904;2023-08-31T20:59:57;8.97;;;3.20;;
10473;SDS011;5284;50.446;7.904;2023-08-31T21:05:01;7.65;;;2.42;;
10473;SDS011;5284;50.446;7.904;2023-08-31T21:10:06;10.48;;;2.60;;
10473;SDS011;5284;50.446;7.904;2023-08-31T21:15:12;16.48;;;3.25;;
10473;SDS011;5284;50.446;7.904;2023-08-31T21:20:16;10.02;;;2.38;;
10473;SDS011;5284;50.446;7.904;2023-08-31T21:25:20;25.98;;;2.88;;
10473;SDS011;5284;50.446;7.904;2023-08-31T21:30:24;8.55;;;2.47;;
10473;SDS011;5284;50.446;7.904;2023-08-31T21:35:27;6.90;;;2.50;;
10473;SDS011;5284;50.446;7.904;2023-08-31T21:40:33;12.63;;;2.92;;
10473;SDS011;5284;50.446;7.904;2023-08-31T21:45:39;9.98;;;2.08;;
10473;SDS011;5284;50.446;7.904;2023-08-31T21:50:42;19.55;;;3.28;;
10473;SDS011;5284;50.446;7.904;2023-08-31T21:55:45;15.93;;;3.40;;
10473;SDS011;5284;50.446;7.904;2023-08-31T22:00:52;14.82;;;2.67;;
10473;SDS011;5284;50.446;7.904;2023-08-31T22:05:55;13.27;;;2.97;;
10473;SDS011;5284;50.446;7.904;2023-08-31T22:11:03;10.63;;;2.88;;
10473;SDS011;5284;50.446;7.904;2023-08-31T22:16:08;9.45;;;3.33;;
10473;SDS011;5284;50.446;7.904;2023-08-31T22:21:30;11.85;;;2.65;;
10473;SDS011;5284;50.446;7.904;2023-08-31T22:26:34;14.60;;;3.88;;
10473;SDS011;5284;50.446;7.904;2023-08-31T22:31:38;13.93;;;3.38;;
10473;SDS011;5284;50.446;7.904;2023-08-31T22:36:42;15.13;;;3.30;;
10473;SDS011;5284;50.446;7.904;2023-08-31T22:41:45;16.80;;;3.38;;
10473;SDS011;5284;50.446;7.904;2023-08-31T22:46:50;12.98;;;3.13;;
10473;SDS011;5284;50.446;7.904;2023-08-31T22:51:53;14.77;;;2.80;;
10473;SDS011;5284;50.446;7.904;2023-08-31T22:56:57;8.65;;;2.65;;
10473;SDS011;5284;50.446;7.904;2023-08-31T23:02:02;17.02;;;3.30;;
10473;SDS011;5284;50.446;7.904;2023-08-31T23:07:06;6.55;;;2.47;;
10473;SDS011;5284;50.446;7.904;2023-08-31T23:12:09;13.32;;;3.10;;
10473;SDS011;5284;50.446;7.904;2023-08-31T23:17:14;17.05;;;3.45;;
10473;SDS011;5284;50.446;7.904;2023-08-31T23:22:17;8.38;;;2.83;;
10473;SDS011;5284;50.446;7.904;2023-08-31T23:27:19;12.38;;;3.20;;
10473;SDS011;5284;50.446;7.904;2023-08-31T23:32:24;17.73;;;3.45;;
10473;SDS011;5284;50.446;7.904;2023-08-31T23:37:27;9.32;;;3.92;;
10473;SDS011;5284;50.446;7.904;2023-08-31T23:42:30;15.95;;;3.78;;
10473;SDS011;5284;50.446;7.904;2023-08-31T23:47:34;10.43;;;3.53;;
10473;SDS011;5284;50.446;7.904;2023-08-31T23:52:37;8.05;;;2.53;;
10473;SDS011;5284;50.446;7.904;2023-08-31T23:57:40;9.63;;;3.53;;
